Latest Weather Observations for Cairns Racecourse

IDQ60801

Issued at 10:22 pm EST Wednesday 25 May 2022 (issued every 10 minutes, with the page automatically refreshed every 10 minutes)

About weather observations | Map of weather stations | Latest weather observations for QLD | Other Formats
Station Details ID: 031222 Name: CAIRNS RACECOURSE Lat: -16.95 Lon: 145.75 Height: 4.1 m
Data from the previous 72 hours. | See also: Recent months at Cairns Racecourse
Date/Time
EST
Temp
°C
App
Temp
°C
Dew
Point
°C
Rel
Hum
%
Delta-T
°C
Wind Press
QNH
hPa
Press
MSL
hPa
Rain since
9am
mm
Dir  Spd
km/h
Gust
km/h
Spd
kts
Gust
kts
25/10:00pm 22.4 24.7 19.8 85 1.7 SSW 7 11 4 6 - - 0.2
25/09:30pm 22.9 24.4 19.7 82 2.1 S 11 17 6 9 - - 0.2
25/09:00pm 22.7 24.6 19.7 83 1.9 SSW 9 13 5 7 - - 0.2
25/08:30pm 23.3 24.9 19.9 81 2.2 S 11 17 6 9 - - 0.2
25/08:00pm 23.5 25.0 19.8 80 2.4 S 11 15 6 8 - - 0.2
25/07:30pm 23.5 25.0 19.8 80 2.4 S 11 17 6 9 - - 0.2
25/07:00pm 24.0 25.2 19.9 78 2.6 S 13 17 7 9 - - 0.2
25/06:30pm 24.3 26.4 20.2 78 2.7 SSE 9 15 5 8 - - 0.2
25/06:00pm 24.5 26.5 20.8 80 2.4 SE 11 17 6 9 - - 0.2
25/05:30pm 24.8 26.3 20.5 77 2.8 SE 13 20 7 11 - - 0.2
25/05:00pm 24.8 26.0 20.7 78 2.7 SE 15 22 8 12 - - 0.2
25/04:30pm 25.0 25.8 19.8 73 3.4 ESE 15 28 8 15 - - 0.2
25/04:00pm 25.2 25.0 20.5 75 3.1 ESE 22 33 12 18 - - 0.2
25/03:30pm 25.3 26.0 20.5 75 3.1 ESE 17 26 9 14 - - 0.2
25/03:00pm 26.0 26.4 20.6 72 3.5 ESE 19 26 10 14 - - 0.2
25/02:30pm 26.3 27.4 20.4 70 3.9 ESE 15 22 8 12 - - 0.2
25/02:00pm 26.9 28.5 20.7 69 4.1 ESE 13 22 7 12 - - 0.2
25/01:30pm 26.6 27.3 19.7 66 4.5 ESE 15 24 8 13 - - 0.2
25/01:00pm 27.6 28.8 19.9 63 5.0 SE 13 22 7 12 - - 0.2
25/12:30pm 27.9 29.2 20.2 63 5.0 ESE 13 20 7 11 - - 0.2
25/12:00pm 27.3 28.1 19.1 61 5.3 SE 13 20 7 11 - - 0.2
25/11:30am 27.6 28.2 20.2 64 4.8 SSE 17 24 9 13 - - 0.2
25/11:00am 26.9 27.9 19.5 64 4.8 S 13 22 7 12 - - 0.0
25/10:30am 26.5 27.8 20.1 68 4.2 S 13 19 7 10 - - 0.0
25/10:00am 25.7 27.6 19.8 70 3.8 S 9 17 5 9 - - 0.0
25/09:30am 25.0 27.7 20.3 75 3.1 SSE 6 11 3 6 - - 0.0
25/09:00am 22.9 25.1 19.7 82 2.1 SE 7 9 4 5 - - 0.6
25/08:30am 22.3 24.6 19.8 86 1.6 S 7 9 4 5 - - 0.6
25/08:00am 21.7 25.4 20.0 90 1.1 CALM 0 0 0 0 - - 0.6
25/07:30am 21.0 23.4 20.0 94 0.6 ESE 7 9 4 5 - - 0.6
25/07:00am 20.8 23.3 19.8 94 0.6 SSW 6 7 3 4 - - 0.6
25/06:30am 20.7 22.9 19.7 94 0.6 S 7 11 4 6 - - 0.6
25/06:00am 20.9 24.2 19.9 94 0.6 SSE 2 7 1 4 - - 0.6
25/05:30am 20.8 24.5 20.0 95 0.5 CALM 0 0 0 0 - - 0.6
25/05:00am 20.6 23.9 19.9 96 0.4 SE 2 7 1 4 - - 0.6
25/04:30am 20.6 23.1 19.8 95 0.5 S 6 9 3 5 - - 0.6
25/04:00am 20.9 24.6 19.9 94 0.6 CALM 0 0 0 0 - - 0.6
25/03:30am 21.0 23.9 19.8 93 0.8 SSE 4 9 2 5 - - 0.6
25/03:00am 21.1 23.7 20.1 94 0.6 ESE 6 7 3 4 - - 0.6
25/02:30am 21.0 24.7 20.0 94 0.6 CALM 0 4 0 2 - - 0.6
25/02:00am 21.3 23.9 20.1 93 0.8 E 6 7 3 4 - - 0.6
25/01:30am 21.5 25.4 20.3 93 0.8 CALM 0 0 0 0 - - 0.6
25/01:00am 21.4 25.2 20.2 93 0.8 CALM 0 0 0 0 - - 0.6
25/12:30am 21.4 25.2 20.2 93 0.8 CALM 0 0 0 0 - - 0.6
25/12:00am 21.5 24.5 20.0 91 1.0 SSE 4 9 2 5 - - 0.6
 
Date/Time
EST
Temp
°C
App
Temp
°C
Dew
Point
°C
Rel
Hum
%
Delta-T
°C
Wind Press
QNH
hPa
Press
MSL
hPa
Rain since
9am
mm
Dir  Spd
km/h
Gust
km/h
Spd
kts
Gust
kts
24/11:30pm 21.4 23.8 20.0 92 0.9 SE 7 9 4 5 - - 0.6
24/11:00pm 21.7 24.2 20.2 91 1.0 SE 7 9 4 5 - - 0.6
24/10:30pm 22.0 24.7 20.3 90 1.1 ESE 6 7 3 4 - - 0.6
24/10:00pm 22.4 25.1 20.3 88 1.4 SE 6 7 3 4 - - 0.6
24/09:30pm 22.5 25.1 20.4 88 1.4 S 7 11 4 6 - - 0.6
24/09:00pm 22.4 24.9 20.3 88 1.4 SE 7 9 4 5 - - 0.6
24/08:30pm 22.6 24.7 20.1 86 1.6 S 9 15 5 8 - - 0.6
24/08:00pm 22.6 24.8 20.3 87 1.5 SSE 9 13 5 7 - - 0.6
24/07:30pm 22.8 24.9 20.1 85 1.7 S 9 15 5 8 - - 0.6
24/07:00pm 22.8 25.0 20.3 86 1.6 SSE 9 13 5 7 - - 0.6
24/06:30pm 23.2 25.3 20.2 83 1.9 S 9 13 5 7 - - 0.6
24/06:00pm 23.6 25.2 19.9 80 2.4 SSE 11 17 6 9 - - 0.6
24/05:30pm 23.9 25.6 20.2 80 2.4 SE 11 15 6 8 - - 0.6
24/05:00pm 24.2 25.9 20.9 82 2.2 SSE 13 19 7 10 - - 0.6
24/04:30pm 24.5 25.4 20.0 76 2.9 S 15 24 8 13 - - 0.6
24/04:00pm 24.8 25.9 20.5 77 2.8 S 15 24 8 13 - - 0.6
24/03:30pm 24.7 25.5 20.6 78 2.7 SSE 17 24 9 13 - - 0.6
24/03:00pm 24.6 26.8 21.9 85 1.8 ESE 13 19 7 10 - - 0.6
24/02:57pm 24.8 27.3 22.5 87 1.5 ESE 13 17 7 9 - - 0.6
24/02:30pm 24.1 27.2 21.4 85 1.8 SE 7 13 4 7 - - 0.0
24/02:17pm 24.3 26.1 21.2 83 2.0 SE 13 22 7 12 - - 0.0
24/02:00pm 25.4 26.7 20.9 76 3.0 SSE 15 20 8 11 - - 0.0
24/01:30pm 25.6 27.9 21.3 77 2.8 S 11 17 6 9 - - 0.0
24/01:00pm 25.2 27.3 20.9 77 2.8 S 11 17 6 9 - - 0.0
24/12:30pm 24.7 26.0 20.8 79 2.6 S 15 20 8 11 - - 0.0
24/12:00pm 24.7 25.5 20.6 78 2.7 S 17 26 9 14 - - 0.0
24/11:30am 25.0 25.4 20.9 78 2.7 SSE 20 28 11 15 - - 0.0
24/11:00am 24.6 24.6 20.1 76 2.9 SE 20 33 11 18 - - 0.0
24/10:30am 25.6 26.1 20.8 75 3.2 SSE 19 28 10 15 - - 0.0
24/10:00am 25.0 26.4 21.1 79 2.6 SSE 15 24 8 13 - - 0.0
24/09:30am 24.7 25.4 20.4 77 2.8 S 17 24 9 13 - - 0.0
24/09:00am 24.3 26.1 20.4 79 2.5 S 11 17 6 9 - - 0.0
24/08:30am 24.1 26.7 20.4 80 2.4 SSE 7 11 4 6 - - 0.0
24/08:00am 23.6 25.8 20.5 83 2.0 SSE 9 15 5 8 - - 0.0
24/07:30am 23.2 25.9 20.7 86 1.6 SE 7 9 4 5 - - 0.0
24/07:00am 23.0 25.7 20.7 87 1.5 SE 7 11 4 6 - - 0.0
24/06:30am 22.9 25.5 20.4 86 1.6 SSE 7 9 4 5 - - 0.0
24/06:00am 23.0 25.2 20.3 85 1.7 S 9 13 5 7 - - 0.0
24/05:30am 22.8 24.8 20.7 88 1.4 S 11 17 6 9 - - 0.0
24/05:00am 22.7 24.3 20.8 89 1.2 S 13 22 7 12 - - 0.0
24/04:30am 22.7 23.8 20.4 87 1.5 S 15 24 8 13 - - 0.0
24/04:00am 22.8 25.0 21.1 90 1.1 S 11 17 6 9 - - 0.0
24/03:30am 22.8 25.7 21.1 90 1.1 S 7 11 4 6 - - 0.0
24/03:00am 22.7 25.2 21.0 90 1.1 S 9 13 5 7 - - 0.0
24/02:30am 22.4 25.1 20.7 90 1.1 S 7 11 4 6 - - 0.0
24/02:00am 22.0 24.8 20.8 93 0.8 ESE 7 13 4 7 - - 0.0
24/01:30am 21.5 23.9 20.1 92 0.9 SSW 7 9 4 5 - - 0.0
24/01:00am 22.2 24.7 20.3 89 1.2 S 7 11 4 6 - - 0.0
24/12:30am 22.4 26.2 20.9 91 1.0 SE 2 7 1 4 - - 0.0
24/12:00am 22.4 25.4 20.9 91 1.0 ESE 6 7 3 4 - - 0.0
 
Date/Time
EST
Temp
°C
App
Temp
°C
Dew
Point
°C
Rel
Hum
%
Delta-T
°C
Wind Press
QNH
hPa
Press
MSL
hPa
Rain since
9am
mm
Dir  Spd
km/h
Gust
km/h
Spd
kts
Gust
kts
23/11:30pm 22.6 26.6 20.5 88 1.4 CALM 0 0 0 0 - - 0.0
23/11:00pm 22.8 26.7 20.3 86 1.6 CALM 0 0 0 0 - - 0.0
23/10:30pm 22.6 25.6 20.1 86 1.6 S 4 7 2 4 - - 0.0
23/10:00pm 23.1 25.8 20.2 84 1.9 SSW 6 9 3 5 - - 0.0
23/09:30pm 23.5 25.6 20.2 82 2.1 S 9 13 5 7 - - 0.0
23/09:00pm 23.7 25.5 20.4 82 2.1 S 11 17 6 9 - - 0.0
23/08:30pm 23.7 25.5 20.4 82 2.1 S 11 15 6 8 - - 0.0
23/08:00pm 23.7 25.7 20.0 80 2.4 SSE 9 11 5 6 - - 0.0
23/07:30pm 23.7 26.1 20.0 80 2.4 S 7 11 4 6 - - 0.0
23/07:00pm 24.1 25.7 20.0 78 2.6 S 11 19 6 10 - - 0.0
23/06:30pm 24.3 26.7 20.8 81 2.3 SSE 9 13 5 7 - - 0.0
23/06:00pm 24.7 26.4 21.0 80 2.4 SE 13 20 7 11 - - 0.0
23/05:30pm 25.3 27.0 20.1 73 3.4 SSE 11 15 6 8 - - 0.0
23/05:00pm 25.9 28.0 20.2 71 3.7 SE 9 11 5 6 - - 0.0
23/04:30pm 26.1 26.8 20.4 71 3.7 ESE 17 24 9 13 - - 0.0
23/04:00pm 25.9 26.6 20.5 72 3.5 ESE 17 24 9 13 - - 0.0
23/03:30pm 26.6 26.9 20.7 70 3.9 ESE 20 30 11 16 - - 0.0
23/03:00pm 27.2 28.3 21.2 69 4.0 E 17 24 9 13 - - 0.0
23/02:30pm 27.9 28.9 21.0 66 4.6 ESE 17 24 9 13 - - 0.0
23/02:00pm 28.2 29.7 21.2 65 4.7 SE 15 22 8 12 - - 0.0
23/01:30pm 27.9 29.4 21.2 67 4.5 SSE 15 24 8 13 - - 0.0
23/01:00pm 27.6 27.9 20.4 65 4.7 S 19 28 10 15 - - 0.0
23/12:30pm 27.4 28.2 20.7 67 4.4 SSE 17 26 9 14 - - 0.0
23/12:00pm 27.2 28.7 20.5 67 4.4 S 13 19 7 10 - - 0.0
23/11:30am 27.3 29.2 20.6 67 4.4 SSE 11 17 6 9 - - 0.0
23/11:00am 27.0 27.8 20.6 68 4.2 SSE 17 24 9 13 - - 0.0
23/10:30am 26.7 27.3 20.3 68 4.2 SSE 17 22 9 12 - - 0.0
23/10:00am 26.4 27.6 19.8 67 4.3 SE 13 20 7 11 - - 0.0
23/09:30am 26.5 27.3 20.6 70 3.9 S 17 24 9 13 - - 0.0
23/09:00am 25.8 26.3 20.1 71 3.7 SSE 17 24 9 13 - - 0.0
23/08:30am 24.8 25.9 19.6 73 3.3 SSE 13 20 7 11 - - 0.0
23/08:00am 23.3 24.9 19.9 81 2.2 SSW 11 15 6 8 - - 0.0
23/07:30am 23.0 24.9 19.8 82 2.1 S 9 13 5 7 - - 0.0
23/07:00am 22.3 23.7 19.5 84 1.8 S 11 15 6 8 - - 0.0
23/06:30am 22.0 24.1 19.4 85 1.7 S 7 11 4 6 - - 0.0
23/06:00am 22.2 23.6 19.6 85 1.7 S 11 15 6 8 - - 0.0
23/05:30am 21.7 24.7 19.3 86 1.5 SE 2 7 1 4 - - 0.0
23/05:00am 21.7 23.7 19.1 85 1.6 SSE 7 11 4 6 - - 0.0
23/04:30am 22.1 23.7 19.1 83 1.9 S 9 11 5 6 - - 0.0
23/04:00am 22.3 24.0 19.3 83 1.9 SE 9 15 5 8 - - 0.0
23/03:30am 22.4 23.3 19.2 82 2.0 SSE 13 17 7 9 - - 0.0
23/03:00am 21.9 23.6 19.3 85 1.7 S 9 9 5 5 - - 0.0
23/02:30am 21.9 23.8 18.9 83 1.9 SSW 7 11 4 6 - - 0.0
23/02:00am 22.2 24.0 18.8 81 2.1 SSE 7 11 4 6 - - 0.0
23/01:30am 22.3 24.1 18.7 80 2.3 SE 7 11 4 6 - - 0.0
23/01:00am 21.7 24.7 19.3 86 1.5 SSE 2 9 1 5 - - 0.0
23/12:30am 21.5 23.5 18.7 84 1.8 SSW 6 7 3 4 - - 0.0
23/12:00am 21.2 22.6 18.6 85 1.6 SW 9 11 5 6 - - 0.0
 
Date/Time
EST
Temp
°C
App
Temp
°C
Dew
Point
°C
Rel
Hum
%
Delta-T
°C
Wind Press
QNH
hPa
Press
MSL
hPa
Rain since
9am
mm
Dir  Spd
km/h
Gust
km/h
Spd
kts
Gust
kts
22/11:30pm 21.7 23.4 18.5 82 2.0 SSE 7 13 4 7 - - 0.0
22/11:00pm 21.7 23.5 18.7 83 1.9 SSE 7 11 4 6 - - 0.0
22/10:30pm 21.9 22.9 18.7 82 2.0 SSE 11 15 6 8 - - 0.0

Other formats

Comma delimited format used in spreadsheet applications
http://www.bom.gov.au/fwo/IDQ60801/IDQ60801.94288.axf

JavaScript Object Notation format (JSON) in row-major order
http://www.bom.gov.au/fwo/IDQ60801/IDQ60801.94288.json

Data quality

Most of these data are generated automatically and are frequently updated. Quality checks on data are not normally performed. It is possible for incorrect values to appear. Refer to information at About Latest Weather Observations and please check the disclaimer before using these data.